KHVR/HVR METAR and TAF weather

Enter ICAO airport designator
Station Type Date Time Source
KHVR METAR 2021/07/26 16:53 UTC NOAA

KHVR 261653Z AUTO 25006KT 9SM CLR 26/07 A2998 RMK AO2 SLP134 T02560072


Station Type Date Time Source
KHVR Decoded METAR 2021/07/26 16:53 UTC NOAA

HAVRE CITY-COUNTY AIRPORT, MT, United States (KHVR) 48-33N 109-46W 787M
Jul 26, 2021 - 12:53 PM EDT / 2021.07.26 1653 UTC
Wind: from the WSW (250 degrees) at 7 MPH (6 KT):0
Visibility: 9 mile(s):0
Sky conditions: clear
Temperature: 78.1 F (25.6 C)
Dew Point: 45.0 F (7.2 C)
Relative Humidity: 30%
Pressure (altimeter): 29.98 in. Hg (1015 hPa)
ob: KHVR 261653Z AUTO 25006KT 9SM CLR 26/07 A2998 RMK AO2 SLP134 T02560072
cycle: 17

Station Type Date Time Source
KHVR TAF 2021/07/26 18:22 UTC NOAA

TAF KHVR 261720Z 2618/2718 28009KT 6SM HZ SKC
FM262300 30008KT 6SM HZ SCT250
FM270300 VRB06KT 6SM HZ BKN250

Example: see airport list